Time;durP1;ratioP1;P1;durP2;ratioP2;P2;SDS_P1;SDS_P2;PMS_P1;PMS_P2;Temp;Humidity;BMP_temperature;BMP_pressure;BME280_temperature;BME280_humidity;BME280_pressure;Samples;Min_cycle;Max_cycle;Signal;HPM_P1;HPM_P2
2022/10/14 00:09:16;;;;;;;69.90;38.80;;;;;;;8.40;76.51;98876.21;422851;1292;109469;-41
2022/10/14 00:19:24;;;;;;;62.40;37.40;;;;;;;8.46;76.55;98867.91;422695;1294;96609;-42
2022/10/14 00:29:30;;;;;;;71.30;40.70;;;;;;;8.50;76.85;98867.56;422932;1281;110600;-39
2022/10/14 00:39:37;;;;;;;61.70;38.50;;;;;;;8.53;77.03;98868.10;422965;1287;107145;-39
2022/10/14 00:49:45;;;;;;;65.90;35.40;;;;;;;8.57;76.96;98854.77;422783;1293;97478;-39
2022/10/14 00:59:52;;;;;;;58.00;35.90;;;;;;;8.57;76.95;98851.05;422642;1287;110515;-41
2022/10/14 01:20:37;;;;;;;55.50;32.30;;;;;;;8.51;77.00;98838.34;422660;1295;97914;-41
2022/10/14 01:30:48;;;;;;;59.40;34.30;;;;;;;8.42;77.18;98826.27;422431;1294;108481;-41
2022/10/14 01:40:56;;;;;;;68.00;37.50;;;;;;;8.29;77.37;98825.73;422449;1296;98248;-41
2022/10/14 01:51:10;;;;;;;61.80;36.90;;;;;;;8.23;77.52;98814.68;422529;1296;110774;-41
2022/10/14 02:01:17;;;;;;;67.10;37.80;;;;;;;8.27;77.73;98811.18;422758;1296;107649;-41
2022/10/14 02:11:25;;;;;;;63.10;39.00;;;;;;;8.29;77.88;98805.88;422666;1293;98014;-41
2022/10/14 02:21:35;;;;;;;62.50;36.80;;;;;;;8.31;78.12;98800.65;422861;1296;106485;-41
2022/10/14 02:31:45;;;;;;;65.50;36.30;;;;;;;8.35;78.22;98798.90;422567;1295;97860;-43
2022/10/14 02:41:52;;;;;;;69.00;38.20;;;;;;;8.39;78.32;98794.02;422757;1293;109669;-41
2022/10/14 02:51:59;;;;;;;65.80;40.20;;;;;;;8.45;78.60;98792.67;422553;1295;107812;-41
2022/10/14 03:02:07;;;;;;;64.10;38.40;;;;;;;8.52;78.72;98786.60;422252;1295;97975;-41
2022/10/14 03:12:15;;;;;;;73.50;41.60;;;;;;;8.62;78.82;98781.67;422678;1286;107255;-41
2022/10/14 03:22:22;;;;;;;70.60;43.90;;;;;;;8.64;78.86;98782.95;422633;1292;97544;-40
2022/10/14 03:32:30;;;;;;;81.70;46.40;;;;;;;8.60;79.05;98787.20;422820;1295;109752;-40
2022/10/14 03:42:37;;;;;;;77.40;43.40;;;;;;;8.61;79.12;98782.48;422875;1295;107865;-40
2022/10/14 03:52:45;;;;;;;67.90;38.80;;;;;;;8.60;79.20;98783.02;422777;1285;97484;-42
2022/10/14 04:02:55;;;;;;;70.20;42.40;;;;;;;8.57;79.36;98777.77;422569;1293;108805;-40
2022/10/14 04:13:03;;;;;;;76.80;42.70;;;;;;;8.56;79.50;98781.39;422923;1292;97917;-41
2022/10/14 04:23:11;;;;;;;86.20;50.70;;;;;;;8.60;79.69;98771.30;422847;1296;110207;-41
2022/10/14 04:33:18;;;;;;;71.50;41.70;;;;;;;8.66;80.04;98760.76;422584;1295;108584;-40
2022/10/14 04:43:25;;;;;;;68.30;40.80;;;;;;;8.75;80.26;98750.88;422521;1292;96639;-42
2022/10/14 04:53:32;;;;;;;66.50;40.70;;;;;;;8.89;80.59;98746.05;422765;1296;109856;-40
2022/10/14 05:03:39;;;;;;;64.50;37.50;;;;;;;9.04;80.69;98736.72;422928;1278;97974;-41
2022/10/14 05:13:47;;;;;;;69.50;42.90;;;;;;;9.20;80.65;98728.98;422980;1296;111940;-42
2022/10/14 05:23:54;;;;;;;77.70;46.70;;;;;;;9.33;80.66;98725.23;422547;1296;107817;-39
2022/10/14 05:34:00;;;;;;;96.80;54.30;;;;;;;9.40;80.80;98722.80;422551;1296;97869;-39
2022/10/14 05:44:10;;;;;;;74.20;42.60;;;;;;;9.47;80.76;98724.60;422657;1295;108273;-41
2022/10/14 05:54:15;;;;;;;;;;;;;;;9.56;80.80;98729.82;422837;1300;97469;-41
2022/10/14 06:04:23;;;;;;;67.60;38.40;;;;;;;9.62;80.72;98732.79;422412;1296;111422;-39
2022/10/14 06:14:30;;;;;;;67.50;41.50;;;;;;;9.64;80.82;98728.83;422396;1296;109467;-39
2022/10/14 06:24:37;;;;;;;73.80;42.10;;;;;;;9.79;80.89;98724.55;422530;1296;97877;-39
2022/10/14 06:34:44;;;;;;;71.80;43.20;;;;;;;10.06;81.03;98734.37;422846;1296;107531;-41
2022/10/14 06:44:52;;;;;;;72.50;44.90;;;;;;;10.22;80.95;98738.21;422482;1296;98586;-40
2022/10/14 06:54:59;;;;;;;63.50;42.80;;;;;;;10.33;80.99;98735.27;422372;1284;97730;-42
2022/10/14 07:05:06;;;;;;;70.50;42.40;;;;;;;10.42;81.05;98734.45;422238;1296;109285;-42
2022/10/14 07:15:12;;;;;;;67.70;43.30;;;;;;;10.56;81.04;98739.66;422457;1288;96596;-41
2022/10/14 07:25:17;;;;;;;77.60;42.70;;;;;;;10.76;81.10;98731.70;422336;1292;110631;-41
2022/10/14 07:35:24;;;;;;;61.90;41.50;;;;;;;11.14;81.24;98734.38;422481;1296;106656;-40
2022/10/14 07:55:43;;;;;;;65.20;40.20;;;;;;;12.61;81.33;98739.05;422514;1293;107361;-40
2022/10/14 08:05:50;;;;;;;69.90;44.20;;;;;;;13.73;81.06;98723.38;422559;1292;97433;-41
2022/10/14 08:15:58;;;;;;;68.80;40.10;;;;;;;13.98;79.93;98716.33;422700;1296;109422;-41
2022/10/14 08:26:04;;;;;;;54.90;34.20;;;;;;;14.14;79.92;98715.17;422905;1287;109744;-41
2022/10/14 08:36:09;;;;;;;67.60;36.80;;;;;;;14.79;79.50;98720.36;421810;1296;826431;-40
2022/10/14 08:46:24;;;;;;;56.90;36.70;;;;;;;15.70;79.58;98724.33;422619;1295;110353;-40
2022/10/14 08:56:32;;;;;;;59.30;37.70;;;;;;;16.50;78.58;98713.30;422691;1295;109625;-40
2022/10/14 09:06:42;;;;;;;57.20;34.50;;;;;;;16.78;77.65;98704.47;422552;1296;97892;-39
2022/10/14 09:16:54;;;;;;;57.70;33.40;;;;;;;16.92;76.34;98700.89;422737;1296;109146;-40
2022/10/14 09:27:06;;;;;;;49.90;31.80;;;;;;;17.03;75.31;98702.00;422534;1289;107891;-40
2022/10/14 09:47:30;;;;;;;44.90;27.90;;;;;;;16.09;74.08;98705.27;423003;1288;110280;-40
2022/10/14 09:57:37;;;;;;;47.80;27.40;;;;;;;15.96;74.08;98707.92;422749;1287;108578;-40
2022/10/14 10:07:45;;;;;;;37.90;23.30;;;;;;;16.21;74.12;98702.65;422940;1278;97487;-40
2022/10/14 10:17:53;;;;;;;41.10;24.70;;;;;;;16.38;73.83;98704.22;422720;1288;111386;-40
2022/10/14 10:27:59;;;;;;;43.20;26.40;;;;;;;16.88;73.40;98701.54;422269;1296;108575;-41
2022/10/14 10:48:11;;;;;;;31.40;21.20;;;;;;;17.28;72.45;98696.39;422823;1296;111435;-40
2022/10/14 10:58:19;;;;;;;33.70;24.80;;;;;;;17.48;71.27;98684.25;422453;1288;107686;-40
2022/10/14 11:19:13;;;;;;;37.40;23.70;;;;;;;17.51;70.61;98673.01;422369;1296;98021;-40
2022/10/14 11:29:24;;;;;;;37.90;21.90;;;;;;;17.66;69.36;98663.53;422473;1293;109281;-40
2022/10/14 11:39:37;;;;;;;33.40;21.20;;;;;;;17.78;68.98;98656.71;422562;1286;107368;-41
2022/10/14 11:49:44;;;;;;;26.90;20.10;;;;;;;17.81;68.52;98654.61;422504;1289;96923;-40
2022/10/14 11:59:58;;;;;;;34.70;19.70;;;;;;;17.83;67.79;98647.85;422335;1295;109044;-41
2022/10/14 12:10:03;;;;;;;30.30;20.30;;;;;;;17.48;68.01;98643.02;422519;1288;108192;-41
2022/10/14 12:20:16;;;;;;;25.60;18.90;;;;;;;17.58;67.99;98641.06;422730;1287;97880;-40
2022/10/14 12:40:53;;;;;;;40.60;20.40;;;;;;;17.34;67.42;98632.45;421993;1288;108852;-40
2022/10/14 12:50:59;;;;;;;59.90;21.60;;;;;;;17.25;67.53;98628.46;422624;1282;97859;-41
2022/10/14 13:01:05;;;;;;;36.50;23.80;;;;;;;17.13;67.48;98616.38;422995;1295;109879;-41
2022/10/14 13:21:20;;;;;;;30.00;19.20;;;;;;;17.03;67.43;98614.05;422801;1296;98498;-40
2022/10/14 13:31:35;;;;;;;23.00;18.70;;;;;;;17.31;67.18;98611.50;422903;1286;97593;-40
2022/10/14 13:41:46;;;;;;;27.40;19.30;;;;;;;17.40;66.97;98615.30;423625;1278;109676;-41
2022/10/14 13:51:53;;;;;;;24.30;18.70;;;;;;;17.28;66.66;98611.78;422967;1296;107875;-41
2022/10/14 14:12:11;;;;;;;31.00;18.60;;;;;;;16.72;66.82;98601.73;422710;1288;109359;-41
2022/10/14 14:32:20;;;;;;;31.00;20.00;;;;;;;16.59;66.70;98598.04;422569;1295;97595;-41
2022/10/14 14:42:30;;;;;;;40.70;20.30;;;;;;;16.39;66.60;98597.42;422522;1289;97926;-41
2022/10/14 14:52:40;;;;;;;31.10;20.10;;;;;;;16.21;66.79;98594.65;422341;1294;107367;-41
2022/10/14 15:02:51;;;;;;;32.70;20.30;;;;;;;16.06;66.93;98591.88;422615;1287;97889;-41
2022/10/14 15:13:00;;;;;;;40.40;20.90;;;;;;;15.92;67.00;98590.05;422937;1295;109063;-41
2022/10/14 15:23:40;;;;;;;43.00;21.70;;;;;;;15.75;67.33;98587.83;422754;1286;107336;-42
2022/10/14 15:33:48;;;;;;;37.00;23.50;;;;;;;15.39;67.38;98585.52;421930;1295;96665;-41
2022/10/14 15:43:55;;;;;;;41.10;23.30;;;;;;;14.81;67.62;98580.85;422041;1289;110253;-42
2022/10/14 15:54:05;;;;;;;65.50;32.50;;;;;;;14.21;68.03;98579.77;421921;1289;108471;-40
2022/10/14 16:04:10;;;;;;;77.30;37.70;;;;;;;13.59;68.43;98586.02;422459;1295;96670;-40
2022/10/14 16:14:17;;;;;;;88.10;46.20;;;;;;;13.18;69.20;98588.47;422042;1289;110842;-40
2022/10/14 16:34:31;;;;;;;89.90;48.50;;;;;;;12.65;70.20;98602.29;422093;1288;96602;-41
2022/10/14 16:44:38;;;;;;;74.50;45.70;;;;;;;12.45;70.88;98606.96;421924;1291;110544;-40
2022/10/14 16:54:46;;;;;;;79.70;43.70;;;;;;;12.35;71.37;98608.79;421602;1296;109400;-40
2022/10/14 17:04:54;;;;;;;79.80;45.10;;;;;;;12.27;71.83;98613.33;422086;1295;97487;-40
2022/10/14 17:15:01;;;;;;;115.70;62.60;;;;;;;12.10;72.17;98617.33;422190;1292;110359;-40
2022/10/14 17:25:09;;;;;;;111.20;66.40;;;;;;;11.90;72.62;98615.92;422013;1295;107283;-40
2022/10/14 17:35:15;;;;;;;102.50;64.10;;;;;;;11.72;73.06;98617.16;421817;1288;97870;-40
2022/10/14 17:45:22;;;;;;;138.80;73.90;;;;;;;11.52;73.38;98619.52;422150;1289;107841;-40
2022/10/14 17:55:28;;;;;;;103.60;63.40;;;;;;;11.46;74.02;98618.88;421773;1288;96699;-40
2022/10/14 18:05:39;;;;;;;111.50;62.70;;;;;;;11.40;74.48;98612.86;422112;1296;110702;-41
2022/10/14 18:15:54;;;;;;;112.70;63.20;;;;;;;11.36;74.94;98609.87;422187;1295;106715;-40
2022/10/14 18:26:04;;;;;;;156.80;77.80;;;;;;;11.31;75.12;98605.67;421937;1285;97898;-40
2022/10/14 18:36:21;;;;;;;130.40;70.80;;;;;;;11.26;75.62;98603.55;421804;1295;108677;-40
2022/10/14 18:46:28;;;;;;;105.90;62.20;;;;;;;11.23;75.90;98602.39;421976;1296;97873;-39
2022/10/14 18:56:38;;;;;;;104.00;58.10;;;;;;;11.20;76.23;98598.32;422256;1292;109679;-40
2022/10/14 19:16:52;;;;;;;98.70;55.30;;;;;;;11.13;76.72;98604.48;421886;1294;97972;-41
2022/10/14 19:26:59;;;;;;;88.30;51.00;;;;;;;11.10;77.07;98600.38;421853;1295;108183;-41
2022/10/14 19:37:07;;;;;;;103.10;59.60;;;;;;;10.99;77.25;98596.31;422088;1296;98651;-39
2022/10/14 19:47:14;;;;;;;100.80;53.70;;;;;;;10.87;77.39;98586.73;422125;1293;110934;-39
2022/10/14 19:57:21;;;;;;;72.60;42.20;;;;;;;10.76;77.72;98581.63;421750;1295;108120;-41
2022/10/14 20:07:28;;;;;;;79.40;45.40;;;;;;;10.72;78.13;98584.15;422373;1281;97474;-41
2022/10/14 20:17:36;;;;;;;77.00;41.60;;;;;;;10.71;78.36;98583.48;421669;1295;107853;-41
2022/10/14 20:27:42;;;;;;;88.20;46.30;;;;;;;10.67;78.51;98583.98;421161;1295;413288;-40
2022/10/14 20:37:49;;;;;;;82.40;46.50;;;;;;;10.59;78.82;98578.66;421808;1295;111007;-41
2022/10/14 20:47:56;;;;;;;80.90;47.20;;;;;;;10.55;79.03;98578.25;422171;1295;109425;-41
2022/10/14 20:58:04;;;;;;;76.30;43.20;;;;;;;10.50;79.18;98576.98;422297;1288;97291;-40
2022/10/14 21:08:11;;;;;;;70.40;42.80;;;;;;;10.44;79.30;98577.49;422239;1295;107902;-41
2022/10/14 21:28:35;;;;;;;67.60;38.80;;;;;;;10.25;79.71;98567.85;421949;1295;109828;-41
2022/10/14 21:38:43;;;;;;;60.50;37.40;;;;;;;10.20;79.96;98560.58;422114;1288;107608;-40
2022/10/14 21:48:55;;;;;;;69.40;40.90;;;;;;;10.13;80.05;98556.91;422230;1289;98201;-42
2022/10/14 22:09:10;;;;;;;68.40;40.60;;;;;;;9.95;80.35;98553.95;422049;1296;97880;-41
2022/10/14 22:19:17;;;;;;;69.40;40.70;;;;;;;9.83;80.44;98545.13;421887;1293;110407;-41
2022/10/14 22:29:25;;;;;;;73.90;41.30;;;;;;;9.73;80.76;98544.06;421952;1296;107280;-41
2022/10/14 22:39:34;;;;;;;65.00;37.50;;;;;;;9.69;80.88;98536.98;422227;1287;97120;-40
2022/10/14 22:49:42;;;;;;;61.10;37.60;;;;;;;9.67;81.17;98533.85;422036;1295;107523;-41
2022/10/14 22:59:49;;;;;;;61.80;35.30;;;;;;;9.69;81.32;98528.42;422176;1288;96661;-40
2022/10/14 23:09:57;;;;;;;56.40;33.40;;;;;;;9.75;81.63;98523.88;422302;1296;109502;-40
2022/10/14 23:20:03;;;;;;;56.70;35.40;;;;;;;9.87;81.93;98517.71;421894;1289;108129;-41
2022/10/14 23:30:12;;;;;;;51.70;31.50;;;;;;;10.02;82.21;98510.48;421827;1295;97985;-41
2022/10/14 23:40:19;;;;;;;50.70;32.40;;;;;;;10.17;82.23;98504.10;421932;1295;105824;-40
2022/10/14 23:50:26;;;;;;;56.50;32.00;;;;;;;10.25;82.45;98494.92;422121;1295;98278;-41
